Time;durP1;ratioP1;P1;durP2;ratioP2;P2;SDS_P1;SDS_P2;PMS_P1;PMS_P2;Temp;Humidity;BMP_temperature;BMP_pressure;BME280_temperature;BME280_humidity;BME280_pressure;Samples;Min_cycle;Max_cycle;Signal;HPM_P1;HPM_P2
2022/10/25 00:02:20;;;;;;;35.70;23.95;;;;;;;;;;5052273;28;20409;-74
2022/10/25 00:05:24;;;;;;;34.38;23.95;;;;;;;;;;5052050;28;20043;-73
2022/10/25 00:08:29;;;;;;;43.05;24.25;;;;;;;;;;5052252;28;20385;-73
2022/10/25 00:11:33;;;;;;;36.22;23.85;;;;;;;;;;5052132;28;20043;-73
2022/10/25 00:14:38;;;;;;;36.50;22.60;;;;;;;;;;5052230;28;20527;-73
2022/10/25 00:17:42;;;;;;;34.42;23.02;;;;;;;;;;5051879;28;20055;-73
2022/10/25 00:20:47;;;;;;;34.13;22.70;;;;;;;;;;5051756;28;20059;-73
2022/10/25 00:23:52;;;;;;;38.58;23.02;;;;;;;;;;5051654;28;20059;-73
2022/10/25 00:26:56;;;;;;;33.92;22.15;;;;;;;;;;5052111;28;20039;-73
2022/10/25 00:30:00;;;;;;;32.63;21.70;;;;;;;;;;5051515;28;20044;-73
2022/10/25 00:33:04;;;;;;;33.28;21.85;;;;;;;;;;5051636;28;20040;-74
2022/10/25 00:36:12;;;;;;;39.38;20.38;;;;;;;;;;5051607;28;20207;-74
2022/10/25 00:39:16;;;;;;;33.05;20.58;;;;;;;;;;5051556;28;20040;-74
2022/10/25 00:42:22;;;;;;;32.95;20.27;;;;;;;;;;5051530;28;20044;-73
2022/10/25 00:45:27;;;;;;;38.13;21.80;;;;;;;;;;5051414;28;20044;-73
2022/10/25 00:48:31;;;;;;;39.92;20.92;;;;;;;;;;5051439;28;20048;-73
2022/10/25 00:51:48;;;;;;;31.67;20.33;;;;;;;;;;5051161;28;20048;-73
2022/10/25 00:54:53;;;;;;;42.30;23.23;;;;;;;;;;5051261;28;20143;-73
2022/10/25 00:58:06;;;;;;;39.55;24.88;;;;;;;;;;5051083;28;20048;-73
2022/10/25 01:01:14;;;;;;;41.40;25.98;;;;;;;;;;5051123;28;20048;-73
2022/10/25 01:04:19;;;;;;;46.05;26.30;;;;;;;;;;5051054;28;20052;-73
2022/10/25 01:07:23;;;;;;;39.60;22.75;;;;;;;;;;5051274;28;20036;-73
2022/10/25 01:10:28;;;;;;;35.97;21.38;;;;;;;;;;5050816;28;20044;-73
2022/10/25 01:13:32;;;;;;;40.08;21.80;;;;;;;;;;5051223;28;20044;-73
2022/10/25 01:16:39;;;;;;;41.80;21.35;;;;;;;;;;5051594;28;20040;-73
2022/10/25 01:20:02;;;;;;;38.15;20.88;;;;;;;;;;5051242;28;20044;-73
2022/10/25 01:23:25;;;;;;;33.67;20.58;;;;;;;;;;5050865;28;20532;-73
2022/10/25 01:26:48;;;;;;;34.05;20.88;;;;;;;;;;5051254;28;20512;-73
2022/10/25 01:29:52;;;;;;;35.75;19.88;;;;;;;;;;5050787;28;20048;-73
2022/10/25 01:33:08;;;;;;;41.10;20.92;;;;;;;;;;5050808;28;20064;-73
2022/10/25 01:36:18;;;;;;;33.90;19.77;;;;;;;;;;5050961;28;20040;-73
2022/10/25 01:39:29;;;;;;;32.85;20.33;;;;;;;;;;5050540;28;20044;-73
2022/10/25 01:43:00;;;;;;;30.98;19.90;;;;;;;;;;5053604;28;20044;-73
2022/10/25 01:46:04;;;;;;;31.65;20.13;;;;;;;;;;5050120;28;20048;-73
2022/10/25 01:49:11;;;;;;;32.17;19.35;;;;;;;;;;5054925;28;20527;-73
2022/10/25 01:52:22;;;;;;;31.17;18.83;;;;;;;;;;5054561;28;20052;-73
2022/10/25 01:55:31;;;;;;;29.67;19.50;;;;;;;;;;5054749;28;20044;-73
2022/10/25 01:58:44;;;;;;;39.50;18.67;;;;;;;;;;5054712;28;20044;-73
2022/10/25 02:02:07;;;;;;;27.88;18.90;;;;;;;;;;5054253;28;20044;-73
2022/10/25 02:05:14;;;;;;;30.25;19.75;;;;;;;;;;5053547;28;20055;-73
2022/10/25 02:08:35;;;;;;;44.95;19.80;;;;;;;;;;5054614;28;20044;-73
2022/10/25 02:11:40;;;;;;;32.72;17.92;;;;;;;;;;5054199;28;20064;-73
2022/10/25 02:15:17;;;;;;;26.88;17.38;;;;;;;;;;5054248;28;20504;-73
2022/10/25 02:18:23;;;;;;;41.28;19.73;;;;;;;;;;5041954;28;20048;-73
2022/10/25 02:21:28;;;;;;;39.95;19.33;;;;;;;;;;5054041;28;20071;-73
2022/10/25 02:24:33;;;;;;;33.72;19.30;;;;;;;;;;5053948;28;20056;-73
2022/10/25 02:27:38;;;;;;;32.78;18.67;;;;;;;;;;5054198;28;20215;-73
2022/10/25 02:30:43;;;;;;;34.38;18.30;;;;;;;;;;5053747;28;20060;-73
2022/10/25 02:33:48;;;;;;;33.92;20.08;;;;;;;;;;5064424;28;20040;-73
2022/10/25 02:36:52;;;;;;;38.63;20.60;;;;;;;;;;5054117;28;20044;-73
2022/10/25 02:39:56;;;;;;;39.67;18.70;;;;;;;;;;5054031;28;20047;-73
2022/10/25 02:43:00;;;;;;;30.58;20.65;;;;;;;;;;5053591;28;20052;-73
2022/10/25 02:46:06;;;;;;;36.10;20.30;;;;;;;;;;5053625;28;20044;-73
2022/10/25 02:49:10;;;;;;;30.30;19.00;;;;;;;;;;5053544;28;20143;-73
2022/10/25 02:52:14;;;;;;;32.15;18.80;;;;;;;;;;5053435;28;20067;-73
2022/10/25 02:55:37;;;;;;;40.38;20.27;;;;;;;;;;5053356;28;20044;-73
2022/10/25 02:58:42;;;;;;;39.03;20.95;;;;;;;;;;5053441;28;20052;-73
2022/10/25 03:01:47;;;;;;;34.83;19.88;;;;;;;;;;5052962;28;20052;-73
2022/10/25 03:04:51;;;;;;;38.33;21.60;;;;;;;;;;5053142;28;20068;-73
2022/10/25 03:07:55;;;;;;;39.67;20.67;;;;;;;;;;5052970;28;20044;-73
2022/10/25 03:10:59;;;;;;;29.83;20.02;;;;;;;;;;5052997;28;20044;-73
2022/10/25 03:14:03;;;;;;;36.65;18.77;;;;;;;;;;5052932;28;20031;-73
2022/10/25 03:17:08;;;;;;;34.58;20.60;;;;;;;;;;5053397;28;20048;-73
2022/10/25 03:20:12;;;;;;;30.55;19.92;;;;;;;;;;5053018;28;20047;-73
2022/10/25 03:23:16;;;;;;;33.75;19.05;;;;;;;;;;5053008;28;20052;-73
2022/10/25 03:26:20;;;;;;;29.05;19.48;;;;;;;;;;5053005;28;20535;-73
2022/10/25 03:29:25;;;;;;;27.42;19.60;;;;;;;;;;5052783;28;20043;-73
2022/10/25 03:32:29;;;;;;;27.00;18.55;;;;;;;;;;5052849;28;20068;-73
2022/10/25 03:35:33;;;;;;;34.42;19.08;;;;;;;;;;5052869;28;20051;-73
2022/10/25 03:38:38;;;;;;;34.08;21.38;;;;;;;;;;5052860;28;20060;-73
2022/10/25 03:41:42;;;;;;;37.65;22.90;;;;;;;;;;5052438;28;20040;-73
2022/10/25 03:44:47;;;;;;;43.80;23.42;;;;;;;;;;5052428;28;20056;-73
2022/10/25 03:47:51;;;;;;;39.95;24.17;;;;;;;;;;5052345;28;20147;-73
2022/10/25 03:50:55;;;;;;;38.90;24.45;;;;;;;;;;5052314;28;20040;-73
2022/10/25 03:54:00;;;;;;;39.05;23.98;;;;;;;;;;5052407;28;20043;-73
2022/10/25 03:57:04;;;;;;;39.40;25.85;;;;;;;;;;5052232;28;20040;-73
2022/10/25 04:00:09;;;;;;;44.40;25.88;;;;;;;;;;5052270;28;20047;-73
2022/10/25 04:03:16;;;;;;;47.58;27.73;;;;;;;;;;5051966;28;20060;-73
2022/10/25 04:06:20;;;;;;;50.97;27.30;;;;;;;;;;5052296;28;20052;-73
2022/10/25 04:09:27;;;;;;;56.63;29.63;;;;;;;;;;5052157;28;20048;-73
2022/10/25 04:12:31;;;;;;;49.60;27.52;;;;;;;;;;5051939;28;20063;-75
2022/10/25 04:15:37;;;;;;;44.53;24.85;;;;;;;;;;5051665;28;20048;-73
2022/10/25 04:18:42;;;;;;;45.72;24.42;;;;;;;;;;5051658;28;20492;-73
2022/10/25 04:21:46;;;;;;;42.05;25.35;;;;;;;;;;5051622;28;20048;-72
2022/10/25 04:24:50;;;;;;;43.53;24.80;;;;;;;;;;5051562;28;20051;-72
2022/10/25 04:27:55;;;;;;;34.47;23.58;;;;;;;;;;5051598;28;20491;-75
2022/10/25 04:30:59;;;;;;;32.58;22.42;;;;;;;;;;5051295;28;20055;-73
2022/10/25 04:34:03;;;;;;;42.50;24.35;;;;;;;;;;5051577;28;20039;-73
2022/10/25 04:37:08;;;;;;;35.10;22.63;;;;;;;;;;5051676;28;20048;-73
2022/10/25 04:40:12;;;;;;;44.78;23.83;;;;;;;;;;5050263;28;20052;-73
2022/10/25 04:43:16;;;;;;;42.33;24.75;;;;;;;;;;5051084;28;20048;-73
2022/10/25 04:46:21;;;;;;;44.75;23.95;;;;;;;;;;5051193;28;20401;-72
2022/10/25 04:49:25;;;;;;;44.90;24.92;;;;;;;;;;5051123;28;20040;-73
2022/10/25 04:52:30;;;;;;;43.67;24.73;;;;;;;;;;5051291;28;20040;-73
2022/10/25 04:55:34;;;;;;;47.88;24.95;;;;;;;;;;5050874;28;20043;-73
2022/10/25 04:58:39;;;;;;;35.03;23.48;;;;;;;;;;5051029;28;20040;-73
2022/10/25 05:01:43;;;;;;;43.60;23.48;;;;;;;;;;5051092;28;20048;-73
2022/10/25 05:04:48;;;;;;;44.47;23.40;;;;;;;;;;5050939;28;20056;-73
2022/10/25 05:07:52;;;;;;;46.20;23.65;;;;;;;;;;5051172;28;20040;-73
2022/10/25 05:10:56;;;;;;;48.78;23.67;;;;;;;;;;5050673;28;20047;-73
2022/10/25 05:14:01;;;;;;;38.10;21.00;;;;;;;;;;5051036;28;20043;-72
2022/10/25 05:17:05;;;;;;;36.17;20.40;;;;;;;;;;5050009;28;20048;-73
2022/10/25 05:20:09;;;;;;;48.17;21.27;;;;;;;;;;5050991;28;20039;-75
2022/10/25 05:23:13;;;;;;;36.97;20.15;;;;;;;;;;5049849;28;20056;-74
2022/10/25 05:26:20;;;;;;;33.22;20.90;;;;;;;;;;5050987;28;20404;-75
2022/10/25 05:29:25;;;;;;;33.92;20.13;;;;;;;;;;5050974;28;20048;-75
2022/10/25 05:32:29;;;;;;;36.40;21.42;;;;;;;;;;5050541;28;20060;-74
2022/10/25 05:35:34;;;;;;;48.75;22.48;;;;;;;;;;5050480;28;20044;-73
2022/10/25 05:38:38;;;;;;;35.67;20.42;;;;;;;;;;5050804;28;20051;-74
2022/10/25 05:41:43;;;;;;;36.72;21.30;;;;;;;;;;5050473;28;20044;-73
2022/10/25 05:44:47;;;;;;;41.17;21.90;;;;;;;;;;5050409;28;20056;-75
2022/10/25 05:47:51;;;;;;;42.55;20.92;;;;;;;;;;5049298;28;20044;-76
2022/10/25 05:51:07;;;;;;;37.03;21.35;;;;;;;;;;5050804;28;20063;-72
2022/10/25 05:54:12;;;;;;;40.20;19.55;;;;;;;;;;5050076;28;20052;-72
2022/10/25 05:57:16;;;;;;;43.92;21.67;;;;;;;;;;5050358;28;20040;-72
2022/10/25 06:00:20;;;;;;;42.60;18.38;;;;;;;;;;5050163;28;20044;-74
2022/10/25 06:03:24;;;;;;;30.20;17.48;;;;;;;;;;5061344;28;20044;-74
2022/10/25 06:06:29;;;;;;;28.98;16.33;;;;;;;;;;5050529;28;20044;-74
2022/10/25 06:09:33;;;;;;;29.42;17.00;;;;;;;;;;5050493;28;20040;-74
2022/10/25 06:12:38;;;;;;;36.33;16.30;;;;;;;;;;5050077;28;20043;-74
2022/10/25 06:15:42;;;;;;;31.95;15.80;;;;;;;;;;5050282;28;20044;-74
2022/10/25 06:18:46;;;;;;;26.95;13.90;;;;;;;;;;5050424;28;20037;-74
2022/10/25 06:21:53;;;;;;;33.03;16.17;;;;;;;;;;5050258;28;20048;-73
2022/10/25 06:24:57;;;;;;;32.22;16.02;;;;;;;;;;5050133;28;20048;-73
2022/10/25 06:28:01;;;;;;;30.25;17.00;;;;;;;;;;5051572;28;20040;-75
2022/10/25 06:31:12;;;;;;;37.08;17.48;;;;;;;;;;5053646;28;20535;-75
2022/10/25 06:34:17;;;;;;;38.38;18.90;;;;;;;;;;5053948;28;20040;-75
2022/10/25 06:37:21;;;;;;;37.50;18.17;;;;;;;;;;5053934;28;20051;-74
2022/10/25 06:40:25;;;;;;;35.03;20.08;;;;;;;;;;5053509;28;20071;-71
2022/10/25 06:43:30;;;;;;;33.88;18.45;;;;;;;;;;5053482;28;20056;-72
2022/10/25 06:46:35;;;;;;;40.65;21.67;;;;;;;;;;5053682;28;20040;-72
2022/10/25 06:49:40;;;;;;;31.90;17.73;;;;;;;;;;5053784;28;20044;-72
2022/10/25 06:52:44;;;;;;;39.55;19.70;;;;;;;;;;5053454;28;20048;-74
2022/10/25 06:55:48;;;;;;;34.65;19.58;;;;;;;;;;5053163;28;20048;-72
2022/10/25 06:58:53;;;;;;;48.42;24.05;;;;;;;;;;5053098;28;20040;-71
2022/10/25 07:01:57;;;;;;;48.42;25.02;;;;;;;;;;5052976;28;20492;-71
2022/10/25 07:05:01;;;;;;;44.72;24.88;;;;;;;;;;5052990;28;20420;-72
2022/10/25 07:08:05;;;;;;;47.13;26.23;;;;;;;;;;5052423;28;20036;-71
2022/10/25 07:11:19;;;;;;;44.95;25.60;;;;;;;;;;5053797;28;20055;-72
2022/10/25 07:14:23;;;;;;;36.92;25.58;;;;;;;;;;5053007;28;20048;-74
2022/10/25 07:17:28;;;;;;;39.40;23.33;;;;;;;;;;5052938;28;20500;-71
2022/10/25 07:20:32;;;;;;;42.78;25.95;;;;;;;;;;5052325;28;20048;-71
2022/10/25 07:23:41;;;;;;;46.22;26.63;;;;;;;;;;5053017;28;20052;-74
2022/10/25 07:26:45;;;;;;;47.42;28.90;;;;;;;;;;5052670;28;20048;-73
2022/10/25 07:29:49;;;;;;;44.33;27.10;;;;;;;;;;5052848;28;20039;-77
2022/10/25 07:32:54;;;;;;;36.33;22.85;;;;;;;;;;5052915;28;20044;-72
2022/10/25 07:35:58;;;;;;;42.35;24.38;;;;;;;;;;5052485;28;20048;-72
2022/10/25 07:39:02;;;;;;;51.88;24.27;;;;;;;;;;5051352;28;20043;-72
2022/10/25 07:42:06;;;;;;;45.03;24.52;;;;;;;;;;5052386;28;20043;-72
2022/10/25 07:45:11;;;;;;;38.72;24.00;;;;;;;;;;5052301;28;20520;-71
2022/10/25 07:48:15;;;;;;;40.38;22.42;;;;;;;;;;5052591;28;20044;-72
2022/10/25 07:51:19;;;;;;;51.03;25.98;;;;;;;;;;5052398;28;20504;-72
2022/10/25 07:54:24;;;;;;;43.78;27.10;;;;;;;;;;5052742;28;20040;-72
2022/10/25 07:57:28;;;;;;;44.38;27.35;;;;;;;;;;5052494;28;20056;-72
2022/10/25 08:00:33;;;;;;;45.75;27.73;;;;;;;;;;5052946;28;20040;-70
2022/10/25 08:03:38;;;;;;;91.07;59.08;;;;;;;;;;5052299;28;20412;-70
2022/10/25 08:06:42;;;;;;;46.17;31.98;;;;;;;;;;5052300;28;20487;-72
2022/10/25 08:09:47;;;;;;;38.88;25.42;;;;;;;;;;5052175;28;20048;-72
2022/10/25 08:12:51;;;;;;;33.05;23.85;;;;;;;;;;5051771;28;20044;-71
2022/10/25 08:15:56;;;;;;;33.40;21.65;;;;;;;;;;5051731;28;20063;-72
2022/10/25 08:19:00;;;;;;;43.97;27.23;;;;;;;;;;5051667;28;20052;-72
2022/10/25 08:22:04;;;;;;;53.40;35.58;;;;;;;;;;5051669;28;20040;-72
2022/10/25 08:25:09;;;;;;;49.67;33.10;;;;;;;;;;5051549;28;20080;-72
2022/10/25 08:28:13;;;;;;;22.92;13.95;;;;;;;;;;5051827;28;20044;-72
2022/10/25 08:31:17;;;;;;;27.75;16.80;;;;;;;;;;5051515;28;20060;-72
2022/10/25 08:34:21;;;;;;;22.08;13.82;;;;;;;;;;5051364;28;20055;-72
2022/10/25 08:37:26;;;;;;;19.50;12.30;;;;;;;;;;5050460;28;20048;-72
2022/10/25 08:40:44;;;;;;;22.73;12.50;;;;;;;;;;5051466;28;20046;-72
2022/10/25 08:43:51;;;;;;;24.70;13.63;;;;;;;;;;5051352;28;20051;-72
2022/10/25 08:47:01;;;;;;;22.17;12.45;;;;;;;;;;5051166;28;20416;-72
2022/10/25 08:50:10;;;;;;;20.30;11.45;;;;;;;;;;5050891;28;20044;-72
2022/10/25 08:53:18;;;;;;;17.33;11.23;;;;;;;;;;5051084;28;20048;-72
2022/10/25 08:56:23;;;;;;;21.20;11.35;;;;;;;;;;5051246;28;20048;-72
2022/10/25 08:59:29;;;;;;;17.98;10.23;;;;;;;;;;5051010;28;20404;-72
2022/10/25 09:02:44;;;;;;;24.20;12.30;;;;;;;;;;5051252;28;20040;-72
2022/10/25 09:06:07;;;;;;;19.58;11.85;;;;;;;;;;5048921;28;20052;-73
2022/10/25 09:09:30;;;;;;;21.52;11.75;;;;;;;;;;5049931;28;20060;-74
2022/10/25 09:12:48;;;;;;;29.85;10.85;;;;;;;;;;5050571;28;20044;-70
2022/10/25 09:15:54;;;;;;;19.17;10.45;;;;;;;;;;5050700;28;20052;-76
2022/10/25 09:18:59;;;;;;;16.63;10.70;;;;;;;;;;5051043;28;20040;-74
2022/10/25 09:22:05;;;;;;;18.42;11.20;;;;;;;;;;5050706;28;20048;-72
2022/10/25 09:25:16;;;;;;;15.43;9.35;;;;;;;;;;5050730;28;20052;-75
2022/10/25 09:28:39;;;;;;;16.02;9.60;;;;;;;;;;5050587;28;20539;-72
2022/10/25 09:31:49;;;;;;;16.95;9.90;;;;;;;;;;5050287;28;20044;-70
2022/10/25 09:34:53;;;;;;;20.80;10.35;;;;;;;;;;5050659;28;20037;-72
2022/10/25 09:38:00;;;;;;;14.20;9.07;;;;;;;;;;5050453;28;20488;-67
2022/10/25 09:41:10;;;;;;;18.27;9.48;;;;;;;;;;5050161;28;20659;-67
2022/10/25 09:44:33;;;;;;;19.90;9.33;;;;;;;;;;5050333;28;20045;-67
2022/10/25 09:47:45;;;;;;;18.38;9.23;;;;;;;;;;5050443;28;20029;-67
2022/10/25 09:50:58;;;;;;;20.13;8.77;;;;;;;;;;5050722;28;20047;-67
2022/10/25 09:54:09;;;;;;;21.13;9.48;;;;;;;;;;5050712;28;20048;-67
2022/10/25 09:57:13;;;;;;;19.85;9.35;;;;;;;;;;5049024;28;20032;-69
2022/10/25 10:00:18;;;;;;;28.52;10.48;;;;;;;;;;5050587;28;20037;-67
2022/10/25 10:03:26;;;;;;;15.77;8.88;;;;;;;;;;5052547;28;20044;-67
2022/10/25 10:06:37;;;;;;;15.93;9.00;;;;;;;;;;5054163;28;20048;-70
2022/10/25 10:09:41;;;;;;;17.00;9.03;;;;;;;;;;5054304;28;20048;-70
2022/10/25 10:13:05;;;;;;;22.10;9.55;;;;;;;;;;5054301;28;20044;-67
2022/10/25 10:16:34;;;;;;;20.48;9.30;;;;;;;;;;5053714;28;20052;-69
2022/10/25 10:19:39;;;;;;;17.98;8.48;;;;;;;;;;5054228;28;20037;-70
2022/10/25 10:22:50;;;;;;;17.80;9.00;;;;;;;;;;5064434;28;20047;-70
2022/10/25 10:25:55;;;;;;;;;;;;;;;;;;5054758;28;20551;-70
2022/10/25 10:29:05;;;;;;;16.63;9.57;;;;;;;;;;5054045;28;19931;-70
2022/10/25 10:32:28;;;;;;;13.33;8.60;;;;;;;;;;5053674;28;20053;-70
2022/10/25 10:35:36;;;;;;;13.23;8.73;;;;;;;;;;5053882;28;20282;-70
2022/10/25 10:38:40;;;;;;;30.25;10.30;;;;;;;;;;5053853;28;20029;-70
2022/10/25 10:41:59;;;;;;;13.85;8.75;;;;;;;;;;5053544;28;20040;-70
2022/10/25 10:45:03;;;;;;;15.52;9.40;;;;;;;;;;5053803;28;20056;-70
2022/10/25 10:48:15;;;;;;;13.93;8.20;;;;;;;;;;5053486;28;20045;-70
2022/10/25 10:51:20;;;;;;;17.02;8.65;;;;;;;;;;5053576;28;20692;-70
2022/10/25 10:54:25;;;;;;;16.63;9.18;;;;;;;;;;5053350;28;20037;-70
2022/10/25 10:57:31;;;;;;;20.23;9.85;;;;;;;;;;5053778;28;20051;-70
2022/10/25 11:00:35;;;;;;;23.23;10.18;;;;;;;;;;5052544;28;20045;-70
2022/10/25 11:03:39;;;;;;;20.85;10.02;;;;;;;;;;5053390;28;20048;-69
2022/10/25 11:06:44;;;;;;;29.58;11.57;;;;;;;;;;5053483;28;20044;-70
2022/10/25 11:09:48;;;;;;;18.75;10.82;;;;;;;;;;5052970;28;20044;-70
2022/10/25 11:13:05;;;;;;;21.25;10.95;;;;;;;;;;5052238;28;20048;-70
2022/10/25 11:16:14;;;;;;;24.05;11.32;;;;;;;;;;5052563;28;20480;-69
2022/10/25 11:19:40;;;;;;;18.30;9.88;;;;;;;;;;5050350;28;20043;-68
2022/10/25 11:22:45;;;;;;;19.27;10.57;;;;;;;;;;5050741;28;20042;-68
2022/10/25 11:25:58;;;;;;;28.63;15.15;;;;;;;;;;5051354;28;20056;-68
2022/10/25 11:29:25;;;;;;;34.42;15.85;;;;;;;;;;5052558;28;20048;-68
2022/10/25 11:32:38;;;;;;;26.80;15.13;;;;;;;;;;5052539;28;20048;-68
2022/10/25 11:35:42;;;;;;;21.05;12.95;;;;;;;;;;5052730;28;20401;-68
2022/10/25 11:38:55;;;;;;;24.15;12.13;;;;;;;;;;5053028;28;20040;-68
2022/10/25 11:42:18;;;;;;;21.42;10.85;;;;;;;;;;5052821;28;20227;-67
2022/10/25 11:45:25;;;;;;;28.88;12.35;;;;;;;;;;5052545;28;20299;-69
2022/10/25 11:48:38;;;;;;;19.95;10.32;;;;;;;;;;5052359;28;20069;-68
2022/10/25 11:52:03;;;;;;;23.02;12.45;;;;;;;;;;5052622;28;20389;-68
2022/10/25 11:55:25;;;;;;;22.63;10.70;;;;;;;;;;5053595;28;20039;-70
2022/10/25 11:58:34;;;;;;;18.67;9.93;;;;;;;;;;5052479;28;20048;-70
2022/10/25 12:02:03;;;;;;;24.27;10.23;;;;;;;;;;5052496;28;20396;-68
2022/10/25 12:05:26;;;;;;;21.42;10.10;;;;;;;;;;5051871;28;20052;-69
2022/10/25 12:08:34;;;;;;;20.98;11.07;;;;;;;;;;5051885;28;20044;-68
2022/10/25 12:11:42;;;;;;;20.45;10.18;;;;;;;;;;5051837;28;20067;-68
2022/10/25 12:14:49;;;;;;;21.20;10.45;;;;;;;;;;5051331;28;20040;-68
2022/10/25 12:17:53;;;;;;;15.75;10.55;;;;;;;;;;5051618;28;20067;-68
2022/10/25 12:20:58;;;;;;;14.10;10.57;;;;;;;;;;5051850;28;20051;-69
2022/10/25 12:24:04;;;;;;;15.55;9.93;;;;;;;;;;5051682;28;20535;-68
2022/10/25 12:27:10;;;;;;;20.63;11.35;;;;;;;;;;5051816;28;20045;-68
2022/10/25 12:30:15;;;;;;;20.52;11.52;;;;;;;;;;5051133;28;20215;-68
2022/10/25 12:33:39;;;;;;;18.88;11.25;;;;;;;;;;5051414;28;20044;-68
2022/10/25 12:36:48;;;;;;;18.10;11.68;;;;;;;;;;5051525;28;20052;-68
2022/10/25 12:39:53;;;;;;;29.67;12.70;;;;;;;;;;5051356;28;20048;-68
2022/10/25 12:43:01;;;;;;;21.05;12.85;;;;;;;;;;5050955;28;20040;-68
2022/10/25 12:46:06;;;;;;;24.33;11.68;;;;;;;;;;5051380;28;20515;-68
2022/10/25 12:49:10;;;;;;;20.30;12.50;;;;;;;;;;5051019;28;20040;-68
2022/10/25 12:52:17;;;;;;;24.88;13.30;;;;;;;;;;5050971;28;20519;-69
2022/10/25 12:55:37;;;;;;;21.60;12.85;;;;;;;;;;5061516;28;20048;-69
2022/10/25 12:58:47;;;;;;;15.82;10.63;;;;;;;;;;5050826;28;20056;-68
2022/10/25 13:02:09;;;;;;;19.15;11.75;;;;;;;;;;5050959;28;20040;-68
2022/10/25 13:05:41;;;;;;;32.92;13.38;;;;;;;;;;5050945;28;20464;-68
2022/10/25 13:08:45;;;;;;;19.70;11.93;;;;;;;;;;5051491;28;20048;-68
2022/10/25 13:11:55;;;;;;;24.02;13.32;;;;;;;;;;5050447;28;20401;-68
2022/10/25 13:14:59;;;;;;;18.30;10.18;;;;;;;;;;5051252;28;20503;-68
2022/10/25 13:18:05;;;;;;;18.45;10.63;;;;;;;;;;5050854;28;20044;-68
2022/10/25 13:21:12;;;;;;;26.55;12.55;;;;;;;;;;5050983;28;20048;-68
2022/10/25 13:24:35;;;;;;;22.60;12.45;;;;;;;;;;5050888;28;20055;-68
2022/10/25 13:27:59;;;;;;;24.80;12.63;;;;;;;;;;5051103;28;20048;-68
2022/10/25 13:31:22;;;;;;;14.45;11.07;;;;;;;;;;5050595;28;20060;-68
2022/10/25 13:34:31;;;;;;;16.60;10.43;;;;;;;;;;5051027;28;20040;-68
2022/10/25 13:37:38;;;;;;;20.00;12.63;;;;;;;;;;5051674;28;20036;-68
2022/10/25 13:40:42;;;;;;;23.35;12.68;;;;;;;;;;5054661;28;20052;-69
2022/10/25 13:43:57;;;;;;;27.90;12.38;;;;;;;;;;5054767;28;20414;-68
2022/10/25 13:47:01;;;;;;;19.48;11.43;;;;;;;;;;5055099;28;20067;-68
2022/10/25 13:50:25;;;;;;;18.15;10.35;;;;;;;;;;5054661;28;20153;-68
2022/10/25 13:53:40;;;;;;;29.13;13.18;;;;;;;;;;5054568;28;20052;-69
2022/10/25 13:56:50;;;;;;;20.90;12.07;;;;;;;;;;5054284;28;20044;-69
2022/10/25 13:59:54;;;;;;;17.00;11.18;;;;;;;;;;5054532;28;20047;-68
2022/10/25 14:03:02;;;;;;;24.98;12.65;;;;;;;;;;5054650;28;20052;-68
2022/10/25 14:06:09;;;;;;;13.82;9.10;;;;;;;;;;5054147;28;20056;-68
2022/10/25 14:09:49;;;;;;;20.23;10.95;;;;;;;;;;5054489;28;20047;-69
2022/10/25 14:12:56;;;;;;;15.50;10.50;;;;;;;;;;5014564;28;20161;-68
2022/10/25 14:16:03;;;;;;;30.77;12.43;;;;;;;;;;5054888;28;20044;-69
2022/10/25 14:19:16;;;;;;;16.73;9.70;;;;;;;;;;5054270;28;20044;-69
2022/10/25 14:22:40;;;;;;;24.92;13.05;;;;;;;;;;5052641;28;20037;-78
2022/10/25 14:25:51;;;;;;;21.98;12.57;;;;;;;;;;5051930;28;20060;-79
2022/10/25 14:29:12;;;;;;;23.13;12.07;;;;;;;;;;5052610;28;20043;-81
2022/10/25 14:32:20;;;;;;;27.38;12.73;;;;;;;;;;5052616;28;20056;-70
2022/10/25 14:35:26;;;;;;;19.83;10.27;;;;;;;;;;5052320;28;20044;-70
2022/10/25 14:38:31;;;;;;;12.68;8.88;;;;;;;;;;5052564;28;20093;-73
2022/10/25 14:41:35;;;;;;;19.92;10.70;;;;;;;;;;5052326;28;20029;-77
2022/10/25 14:44:47;;;;;;;20.05;10.48;;;;;;;;;;5052196;28;20052;-81
2022/10/25 14:47:52;;;;;;;14.88;9.23;;;;;;;;;;5051309;28;20044;-74
2022/10/25 14:50:57;;;;;;;18.88;10.32;;;;;;;;;;5051038;28;20044;-74
2022/10/25 14:54:03;;;;;;;20.85;11.93;;;;;;;;;;5051919;28;20052;-77
2022/10/25 14:57:09;;;;;;;19.42;10.02;;;;;;;;;;5051762;28;20048;-75
2022/10/25 15:00:18;;;;;;;36.60;13.30;;;;;;;;;;5052083;28;20048;-73
2022/10/25 15:03:23;;;;;;;16.02;9.88;;;;;;;;;;5052175;28;20047;-74
2022/10/25 15:06:29;;;;;;;21.38;10.02;;;;;;;;;;5051402;28;20052;-77
2022/10/25 15:09:33;;;;;;;16.10;10.00;;;;;;;;;;5051789;28;20040;-70
2022/10/25 15:12:37;;;;;;;17.60;11.00;;;;;;;;;;5051691;28;20044;-76
2022/10/25 15:15:43;;;;;;;13.80;9.20;;;;;;;;;;5050316;28;20084;-70
2022/10/25 15:19:01;;;;;;;21.30;10.82;;;;;;;;;;5052435;28;20025;-73
2022/10/25 15:22:09;;;;;;;18.58;10.80;;;;;;;;;;5052024;28;20039;-77
2022/10/25 15:25:23;;;;;;;24.50;14.52;;;;;;;;;;5051521;28;20060;-78
2022/10/25 15:28:45;;;;;;;25.02;11.15;;;;;;;;;;5051522;28;20056;-81
2022/10/25 15:31:49;;;;;;;23.20;11.57;;;;;;;;;;5011976;28;1161769;-78
2022/10/25 15:34:55;;;;;;;29.83;15.07;;;;;;;;;;5052803;28;20060;-76
2022/10/25 15:37:59;;;;;;;22.33;11.15;;;;;;;;;;5052551;28;20044;-76
2022/10/25 15:41:03;;;;;;;18.40;11.20;;;;;;;;;;5052374;28;20040;-74
2022/10/25 15:44:08;;;;;;;18.30;10.10;;;;;;;;;;5052880;28;20048;-75
2022/10/25 15:47:27;;;;;;;22.25;12.20;;;;;;;;;;5063203;28;20094;-73
2022/10/25 15:50:32;;;;;;;19.48;11.00;;;;;;;;;;5052551;28;20048;-70
2022/10/25 15:53:36;;;;;;;24.05;12.65;;;;;;;;;;5052139;28;20056;-71
2022/10/25 15:56:40;;;;;;;22.02;11.98;;;;;;;;;;5051020;28;20044;-71
2022/10/25 15:59:44;;;;;;;28.85;12.70;;;;;;;;;;5051232;28;20060;-75
2022/10/25 16:02:49;;;;;;;21.73;12.43;;;;;;;;;;5051762;28;20396;-73
2022/10/25 16:05:53;;;;;;;31.48;15.20;;;;;;;;;;5052163;28;20052;-74
2022/10/25 16:08:58;;;;;;;28.02;12.82;;;;;;;;;;5051887;28;20044;-75
2022/10/25 16:12:02;;;;;;;42.67;14.25;;;;;;;;;;5052188;28;20056;-74
2022/10/25 16:15:06;;;;;;;36.55;14.50;;;;;;;;;;5051774;28;20036;-74
2022/10/25 16:18:11;;;;;;;42.75;16.20;;;;;;;;;;5051861;28;20047;-77
2022/10/25 16:21:15;;;;;;;38.05;13.52;;;;;;;;;;5051351;28;20044;-77
2022/10/25 16:24:20;;;;;;;38.28;14.80;;;;;;;;;;5050671;28;20067;-76
2022/10/25 16:27:24;;;;;;;23.20;13.68;;;;;;;;;;5051393;28;20060;-77
2022/10/25 16:30:32;;;;;;;23.90;14.15;;;;;;;;;;5051338;28;20048;-75
2022/10/25 16:33:37;;;;;;;23.17;14.27;;;;;;;;;;5052115;28;20044;-76
2022/10/25 16:36:41;;;;;;;35.33;16.33;;;;;;;;;;5050723;28;20048;-76
2022/10/25 16:39:46;;;;;;;45.05;17.77;;;;;;;;;;5051554;28;20048;-77
2022/10/25 16:42:50;;;;;;;33.15;16.55;;;;;;;;;;5050464;28;20036;-76
2022/10/25 16:45:54;;;;;;;28.02;16.33;;;;;;;;;;5051384;28;20072;-73
2022/10/25 16:48:59;;;;;;;38.78;18.13;;;;;;;;;;5051273;28;20388;-72
2022/10/25 16:52:04;;;;;;;42.38;18.55;;;;;;;;;;5050223;28;20051;-73
2022/10/25 16:55:09;;;;;;;33.08;17.70;;;;;;;;;;5050086;28;20052;-73
2022/10/25 16:58:14;;;;;;;48.00;18.65;;;;;;;;;;5049221;28;20154;-72
2022/10/25 17:01:19;;;;;;;39.78;20.15;;;;;;;;;;5051038;28;20048;-74
2022/10/25 17:04:23;;;;;;;48.78;19.45;;;;;;;;;;5050985;28;20036;-74
2022/10/25 17:07:28;;;;;;;48.28;21.48;;;;;;;;;;5050886;28;20055;-74
2022/10/25 17:10:32;;;;;;;33.45;18.10;;;;;;;;;;5049605;28;20052;-74
2022/10/25 17:13:37;;;;;;;34.75;18.88;;;;;;;;;;5050859;28;20040;-72
2022/10/25 17:16:43;;;;;;;33.22;19.00;;;;;;;;;;5049140;28;20052;-72
2022/10/25 17:19:47;;;;;;;34.58;19.27;;;;;;;;;;5050189;28;20389;-72
2022/10/25 17:22:53;;;;;;;30.67;17.98;;;;;;;;;;5050914;28;20048;-74
2022/10/25 17:25:57;;;;;;;39.70;18.27;;;;;;;;;;5049891;28;20056;-74
2022/10/25 17:29:01;;;;;;;34.35;18.20;;;;;;;;;;5051411;28;20052;-74
2022/10/25 17:32:06;;;;;;;36.92;19.08;;;;;;;;;;5050318;28;20136;-74
2022/10/25 17:35:10;;;;;;;40.78;19.20;;;;;;;;;;5051134;28;20044;-74
2022/10/25 17:38:15;;;;;;;38.40;18.50;;;;;;;;;;5051120;28;20044;-74
2022/10/25 17:41:19;;;;;;;30.15;18.13;;;;;;;;;;5051046;28;20056;-72
2022/10/25 17:44:23;;;;;;;38.97;18.40;;;;;;;;;;5050190;28;20052;-74
2022/10/25 17:47:28;;;;;;;36.10;19.17;;;;;;;;;;5050913;28;20056;-75
2022/10/25 17:50:35;;;;;;;51.45;20.50;;;;;;;;;;5050325;28;20048;-74
2022/10/25 17:53:40;;;;;;;36.58;18.92;;;;;;;;;;5049698;28;20040;-74
2022/10/25 17:56:45;;;;;;;37.50;19.45;;;;;;;;;;5050517;28;20055;-74
2022/10/25 17:59:49;;;;;;;30.60;18.42;;;;;;;;;;5050490;28;20059;-74
2022/10/25 18:02:54;;;;;;;44.50;20.80;;;;;;;;;;5050266;28;20112;-74
2022/10/25 18:06:05;;;;;;;50.70;20.65;;;;;;;;;;5060963;28;20059;-74
2022/10/25 18:09:09;;;;;;;45.22;21.95;;;;;;;;;;5050499;28;20044;-74
2022/10/25 18:12:15;;;;;;;45.25;21.65;;;;;;;;;;5050495;28;20413;-76
2022/10/25 18:15:21;;;;;;;44.17;22.30;;;;;;;;;;5050387;28;20036;-73